createdAt,value
2018-07-28T00:00:07.670Z,10.03
2018-07-28T00:00:40.774Z,9.35
2018-07-28T00:01:13.879Z,9.93
2018-07-28T00:01:46.989Z,9.50
2018-07-28T00:02:20.140Z,8.95
2018-07-28T00:02:53.697Z,10.32
2018-07-28T00:03:26.743Z,9.88
2018-07-28T00:03:59.880Z,10.13
2018-07-28T00:04:33.112Z,9.60
2018-07-28T00:05:06.706Z,10.08
2018-07-28T00:05:39.901Z,10.10
2018-07-28T00:06:13.046Z,8.85
2018-07-28T00:06:46.120Z,9.68
2018-07-28T00:07:19.224Z,9.78
2018-07-28T00:07:52.326Z,9.48
2018-07-28T00:08:25.427Z,8.88
2018-07-28T00:08:58.580Z,10.10
2018-07-28T00:09:31.839Z,10.23
2018-07-28T00:10:07.166Z,9.98
2018-07-28T00:10:41.573Z,9.58
2018-07-28T00:11:14.692Z,9.53
2018-07-28T00:11:47.813Z,10.08
2018-07-28T00:12:20.972Z,10.03
2018-07-28T00:12:54.063Z,9.93
2018-07-28T00:13:27.327Z,10.00
2018-07-28T00:14:00.448Z,10.05
2018-07-28T00:14:33.539Z,9.80
2018-07-28T00:15:09.066Z,9.60
2018-07-28T00:15:42.207Z,10.13
2018-07-28T00:16:15.320Z,11.22
2018-07-28T00:16:48.417Z,9.78
2018-07-28T00:17:21.539Z,9.75
2018-07-28T00:17:54.654Z,10.03
2018-07-28T00:18:27.747Z,9.93
2018-07-28T00:19:00.862Z,9.55
2018-07-28T00:19:34.135Z,9.93
2018-07-28T00:20:07.996Z,10.30
2018-07-28T00:20:41.089Z,10.38
2018-07-28T00:21:14.178Z,9.83
2018-07-28T00:21:47.270Z,10.23
2018-07-28T00:22:20.367Z,10.25
2018-07-28T00:22:53.516Z,10.03
2018-07-28T00:23:26.833Z,10.48
2018-07-28T00:24:00.012Z,10.60
2018-07-28T00:24:33.110Z,10.05
2018-07-28T00:25:06.868Z,9.45
2018-07-28T00:25:45.465Z,9.78
2018-07-28T00:26:18.950Z,9.30
2018-07-28T00:26:52.039Z,9.65
2018-07-28T00:27:25.143Z,10.38
2018-07-28T00:27:58.403Z,10.08
2018-07-28T00:28:31.528Z,10.32
2018-07-28T00:29:04.631Z,9.78
2018-07-28T00:29:37.825Z,9.13
2018-07-28T00:30:12.215Z,10.68
2018-07-28T00:30:45.421Z,9.70
2018-07-28T00:31:18.510Z,10.95
2018-07-28T00:31:51.587Z,9.90
2018-07-28T00:32:24.666Z,9.33
2018-07-28T00:32:57.754Z,9.95
2018-07-28T00:33:30.984Z,10.82
2018-07-28T00:34:04.039Z,10.03
2018-07-28T00:34:37.093Z,9.33
2018-07-28T00:35:10.206Z,10.00
2018-07-28T00:35:43.387Z,9.78
2018-07-28T00:36:16.439Z,10.28
2018-07-28T00:36:49.524Z,8.33
2018-07-28T00:37:22.604Z,10.88
2018-07-28T00:37:55.709Z,10.10
2018-07-28T00:38:28.799Z,9.45
2018-07-28T00:39:01.884Z,10.23
2018-07-28T00:39:36.350Z,10.05
2018-07-28T00:40:09.441Z,10.05
2018-07-28T00:40:42.602Z,10.35
2018-07-28T00:41:15.679Z,9.95
2018-07-28T00:41:48.778Z,9.60
2018-07-28T00:42:21.869Z,9.83
2018-07-28T00:42:54.944Z,9.05
2018-07-28T00:43:28.041Z,10.10
2018-07-28T00:44:01.198Z,10.13
2018-07-28T00:44:34.267Z,10.28
2018-07-28T00:45:07.511Z,10.32
2018-07-28T00:45:40.611Z,9.90
2018-07-28T00:46:13.719Z,9.60
2018-07-28T00:46:47.084Z,10.28
2018-07-28T00:47:20.159Z,8.95
2018-07-28T00:47:53.322Z,9.60
2018-07-28T00:48:26.612Z,10.18
2018-07-28T00:48:59.736Z,9.83
2018-07-28T00:49:32.814Z,10.45
2018-07-28T00:50:06.404Z,9.75
2018-07-28T00:50:39.510Z,10.28
2018-07-28T00:51:12.695Z,10.55
2018-07-28T00:51:45.794Z,10.30
2018-07-28T00:52:18.889Z,9.10
2018-07-28T00:52:51.956Z,9.13
2018-07-28T00:53:25.080Z,9.48
2018-07-28T00:53:58.194Z,9.88
2018-07-28T00:54:31.273Z,9.90
2018-07-28T00:55:04.609Z,9.50
2018-07-28T00:55:37.911Z,9.55
2018-07-28T00:56:10.999Z,10.00
2018-07-28T00:56:44.103Z,9.35
2018-07-28T00:57:17.199Z,9.60
2018-07-28T00:57:50.315Z,9.85
2018-07-28T00:58:23.431Z,9.40
2018-07-28T00:58:56.819Z,9.90
2018-07-28T00:59:29.916Z,10.32
2018-07-28T01:00:03.036Z,9.85
2018-07-28T01:00:36.144Z,9.73
2018-07-28T01:01:09.239Z,9.63
2018-07-28T01:01:42.336Z,9.35
2018-07-28T01:02:15.448Z,10.30
2018-07-28T01:02:48.545Z,9.60
2018-07-28T01:03:21.784Z,9.58
2018-07-28T01:03:54.931Z,9.80
2018-07-28T01:04:28.040Z,10.45
2018-07-28T01:05:01.138Z,9.55
2018-07-28T01:05:34.286Z,10.65
2018-07-28T01:06:07.422Z,10.48
2018-07-28T01:06:40.525Z,9.23
2018-07-28T01:07:13.640Z,9.63
2018-07-28T01:07:46.831Z,9.58
2018-07-28T01:08:19.918Z,10.05
2018-07-28T01:08:53.370Z,9.78
2018-07-28T01:09:26.474Z,9.55
2018-07-28T01:09:59.548Z,9.58
2018-07-28T01:10:32.717Z,9.63
2018-07-28T01:11:05.826Z,9.53
2018-07-28T01:11:38.935Z,10.03
2018-07-28T01:12:12.064Z,9.48
2018-07-28T01:12:45.158Z,9.50
2018-07-28T01:13:18.251Z,9.65
2018-07-28T01:13:51.343Z,9.65
2018-07-28T01:14:24.665Z,9.83
2018-07-28T01:14:57.758Z,9.95
2018-07-28T01:15:30.924Z,10.30
2018-07-28T01:16:04.074Z,10.18
2018-07-28T01:16:37.192Z,9.65
2018-07-28T01:17:10.313Z,9.78
2018-07-28T01:17:43.404Z,9.25
2018-07-28T01:18:16.519Z,8.53
2018-07-28T01:18:49.616Z,9.73
2018-07-28T01:19:22.727Z,10.03
2018-07-28T01:19:55.813Z,10.72
2018-07-28T01:20:29.007Z,9.30
2018-07-28T01:21:02.181Z,9.35
2018-07-28T01:21:35.278Z,8.85
2018-07-28T01:22:08.396Z,9.33
2018-07-28T01:22:41.744Z,9.95
2018-07-28T01:23:14.834Z,9.48
2018-07-28T01:23:48.081Z,9.43
2018-07-28T01:24:21.379Z,9.98
2018-07-28T01:24:54.849Z,8.63
2018-07-28T01:25:27.913Z,9.33
2018-07-28T01:26:01.016Z,9.55
2018-07-28T01:26:34.145Z,8.60
2018-07-28T01:27:07.321Z,9.40
2018-07-28T01:27:40.946Z,8.63
2018-07-28T01:28:14.063Z,9.50
2018-07-28T01:28:54.272Z,9.70
2018-07-28T01:29:27.379Z,9.25
2018-07-28T01:30:00.459Z,8.98
2018-07-28T01:30:33.595Z,8.43
2018-07-28T01:31:06.738Z,9.65
2018-07-28T01:31:39.939Z,9.78
2018-07-28T01:32:13.116Z,9.50
2018-07-28T01:32:46.507Z,9.65
2018-07-28T01:33:19.579Z,9.10
2018-07-28T01:33:52.703Z,9.58
2018-07-28T01:34:25.801Z,8.95
2018-07-28T01:34:58.866Z,9.78
2018-07-28T01:35:31.957Z,9.70
2018-07-28T01:36:05.071Z,10.08
2018-07-28T01:36:38.154Z,9.90
2018-07-28T01:37:11.262Z,8.35
2018-07-28T01:37:44.387Z,9.80
2018-07-28T01:38:17.463Z,9.20
2018-07-28T01:38:50.650Z,9.45
2018-07-28T01:39:23.827Z,9.48
2018-07-28T01:39:56.886Z,9.05
2018-07-28T01:40:29.986Z,9.15
2018-07-28T01:41:03.097Z,9.55
2018-07-28T01:41:36.213Z,9.53
2018-07-28T01:42:09.295Z,9.35
2018-07-28T01:42:42.492Z,8.98
2018-07-28T01:43:15.627Z,9.20
2018-07-28T01:43:48.740Z,9.55
2018-07-28T01:44:21.894Z,9.40
2018-07-28T01:44:55.018Z,8.90
2018-07-28T01:45:28.099Z,9.65
2018-07-28T01:46:01.200Z,9.65
2018-07-28T01:46:34.284Z,9.10
2018-07-28T01:47:07.397Z,9.80
2018-07-28T01:47:40.496Z,9.10
2018-07-28T01:48:13.680Z,9.28
2018-07-28T01:48:46.792Z,9.60
2018-07-28T01:49:19.916Z,8.85
2018-07-28T01:49:52.997Z,9.13
2018-07-28T01:50:26.091Z,9.15
2018-07-28T01:50:59.187Z,8.70
2018-07-28T01:51:32.348Z,8.75
2018-07-28T01:52:05.475Z,9.90
2018-07-28T01:52:38.798Z,9.58
2018-07-28T01:53:11.922Z,8.48
2018-07-28T01:53:45.012Z,9.88
2018-07-28T01:54:18.093Z,9.10
2018-07-28T01:54:51.220Z,8.58
2018-07-28T01:55:24.312Z,9.18
2018-07-28T01:55:57.424Z,9.00
2018-07-28T01:56:30.787Z,8.98
2018-07-28T01:57:04.130Z,8.38
2018-07-28T01:57:37.220Z,8.55
2018-07-28T01:58:10.300Z,8.93
2018-07-28T01:58:43.561Z,8.80
2018-07-28T01:59:16.654Z,8.78
2018-07-28T01:59:49.831Z,8.78
2018-07-28T02:00:22.891Z,8.50
2018-07-28T02:00:56.023Z,9.45
2018-07-28T02:01:29.532Z,8.90
2018-07-28T02:02:02.642Z,8.88
2018-07-28T02:02:35.788Z,8.30
2018-07-28T02:03:08.880Z,9.20
2018-07-28T02:03:42.119Z,9.38
2018-07-28T02:04:15.212Z,9.75
2018-07-28T02:04:48.324Z,9.95
2018-07-28T02:05:21.403Z,8.53
2018-07-28T02:05:54.544Z,8.83
2018-07-28T02:06:27.629Z,8.10
2018-07-28T02:07:00.764Z,8.90
2018-07-28T02:07:33.855Z,8.75
2018-07-28T02:08:06.991Z,9.08
2018-07-28T02:08:40.095Z,9.15
2018-07-28T02:09:13.173Z,8.90
2018-07-28T02:09:46.275Z,8.95
2018-07-28T02:10:19.371Z,9.20
2018-07-28T02:10:52.516Z,9.08
2018-07-28T02:11:25.611Z,8.40
2018-07-28T02:11:58.693Z,9.28
2018-07-28T02:12:31.814Z,9.20
2018-07-28T02:13:05.110Z,9.50
2018-07-28T02:13:38.436Z,8.93
2018-07-28T02:14:11.556Z,9.35
2018-07-28T02:14:44.674Z,8.63
2018-07-28T02:15:17.780Z,8.68
2018-07-28T02:15:50.865Z,8.85
2018-07-28T02:16:23.945Z,8.33
2018-07-28T02:16:57.197Z,8.20
2018-07-28T02:17:30.376Z,8.55
2018-07-28T02:18:03.590Z,8.45
2018-07-28T02:18:36.950Z,8.30
2018-07-28T02:19:10.064Z,8.98
2018-07-28T02:19:43.119Z,8.05
2018-07-28T02:20:16.200Z,8.30
2018-07-28T02:20:49.374Z,8.08
2018-07-28T02:21:22.454Z,9.80
2018-07-28T02:21:55.561Z,8.98
2018-07-28T02:22:28.664Z,8.83
2018-07-28T02:23:01.806Z,8.43
2018-07-28T02:23:34.921Z,8.25
2018-07-28T02:24:08.049Z,9.28
2018-07-28T02:24:41.135Z,8.58
2018-07-28T02:25:14.267Z,8.50
2018-07-28T02:25:47.325Z,8.80
2018-07-28T02:26:20.419Z,8.93
2018-07-28T02:26:53.494Z,8.18
2018-07-28T02:27:26.593Z,8.65
2018-07-28T02:27:59.704Z,9.33
2018-07-28T02:28:32.767Z,8.58
2018-07-28T02:29:05.916Z,9.30
2018-07-28T02:29:39.093Z,7.85
2018-07-28T02:30:12.260Z,8.35
2018-07-28T02:30:45.362Z,8.15
2018-07-28T02:31:18.631Z,7.75
2018-07-28T02:31:51.709Z,8.63
2018-07-28T02:32:25.889Z,8.93
2018-07-28T02:32:58.958Z,9.20
2018-07-28T02:33:32.043Z,8.90
2018-07-28T02:34:05.136Z,8.68
2018-07-28T02:34:38.213Z,8.68
2018-07-28T02:35:11.308Z,9.00
2018-07-28T02:35:44.375Z,8.68
2018-07-28T02:36:17.472Z,8.25
2018-07-28T02:36:50.579Z,8.63
2018-07-28T02:37:23.668Z,8.95
2018-07-28T02:37:56.744Z,9.08
2018-07-28T02:38:29.927Z,8.55
2018-07-28T02:39:03.038Z,9.40
2018-07-28T02:39:36.102Z,9.20
2018-07-28T02:40:09.192Z,8.38
2018-07-28T02:40:42.348Z,8.95
2018-07-28T02:41:15.421Z,9.65
2018-07-28T02:41:48.476Z,8.68
2018-07-28T02:42:21.559Z,9.00
2018-07-28T02:42:54.655Z,8.68
2018-07-28T02:43:28.088Z,9.28
2018-07-28T02:44:01.172Z,8.85
2018-07-28T02:44:34.266Z,8.33
2018-07-28T02:45:07.547Z,8.43
2018-07-28T02:45:40.635Z,9.28
2018-07-28T02:46:13.725Z,9.73
2018-07-28T02:46:46.828Z,8.50
2018-07-28T02:47:20.168Z,9.33
2018-07-28T02:47:53.251Z,8.88
2018-07-28T02:48:26.348Z,9.30
2018-07-28T02:48:59.425Z,8.55
2018-07-28T02:49:32.485Z,9.30
2018-07-28T02:50:06.039Z,9.13
2018-07-28T02:50:39.114Z,8.53
2018-07-28T02:51:12.250Z,8.25
2018-07-28T02:51:45.351Z,9.13
2018-07-28T02:52:18.478Z,8.60
2018-07-28T02:52:51.653Z,9.23
2018-07-28T02:53:24.838Z,8.90
2018-07-28T02:53:57.997Z,9.53
2018-07-28T02:54:31.177Z,9.00
2018-07-28T02:55:04.884Z,9.25
2018-07-28T02:55:37.976Z,8.60
2018-07-28T02:56:11.078Z,9.68
2018-07-28T02:56:44.175Z,9.00
2018-07-28T02:57:17.276Z,8.93
2018-07-28T02:57:50.359Z,8.98
2018-07-28T02:58:23.431Z,9.63
2018-07-28T02:58:56.605Z,8.60
2018-07-28T02:59:35.906Z,8.43
2018-07-28T03:00:09.295Z,8.98
2018-07-28T03:00:42.363Z,8.88
2018-07-28T03:01:19.332Z,9.60
2018-07-28T03:01:52.425Z,9.10
2018-07-28T03:02:25.527Z,9.68
2018-07-28T03:02:58.675Z,9.20
2018-07-28T03:03:31.863Z,9.20
2018-07-28T03:04:05.058Z,9.15
2018-07-28T03:04:38.154Z,9.43
2018-07-28T03:06:14.873Z,9.53
2018-07-28T03:06:47.925Z,9.98
2018-07-28T03:07:20.987Z,9.05
2018-07-28T03:07:54.108Z,8.60
2018-07-28T03:08:27.224Z,9.00
2018-07-28T03:09:00.357Z,9.55
2018-07-28T03:09:33.416Z,9.10
2018-07-28T03:10:06.651Z,9.15
2018-07-28T03:10:39.730Z,9.13
2018-07-28T03:11:12.806Z,9.35
2018-07-28T03:11:45.868Z,8.70
2018-07-28T03:12:18.941Z,9.18
2018-07-28T03:12:52.219Z,8.93
2018-07-28T03:13:25.414Z,9.30
2018-07-28T03:13:58.505Z,9.05
2018-07-28T03:14:31.604Z,9.80
2018-07-28T03:15:09.617Z,9.70
2018-07-28T03:15:42.694Z,9.70
2018-07-28T03:16:16.080Z,8.95
2018-07-28T03:16:49.160Z,8.55
2018-07-28T03:17:22.255Z,8.55
2018-07-28T03:17:55.460Z,9.68
2018-07-28T03:18:28.640Z,10.18
2018-07-28T03:19:01.731Z,9.60
2018-07-28T03:19:35.092Z,9.38
2018-07-28T03:20:08.225Z,8.50
2018-07-28T03:20:41.354Z,10.58
2018-07-28T03:21:14.449Z,9.35
2018-07-28T03:21:47.569Z,10.28
2018-07-28T03:22:20.646Z,8.63
2018-07-28T03:22:53.757Z,9.13
2018-07-28T03:23:26.932Z,9.20
2018-07-28T03:24:00.072Z,9.40
2018-07-28T03:24:33.150Z,9.05
2018-07-28T03:25:06.262Z,8.88
2018-07-28T03:25:39.347Z,8.60
2018-07-28T03:26:12.518Z,9.58
2018-07-28T03:26:45.667Z,8.45
2018-07-28T03:27:18.954Z,9.20
2018-07-28T03:27:52.043Z,10.10
2018-07-28T03:28:25.143Z,9.48
2018-07-28T03:28:58.399Z,9.10
2018-07-28T03:29:31.524Z,9.45
2018-07-28T03:30:04.598Z,9.75
2018-07-28T03:30:37.677Z,9.50
2018-07-28T03:31:10.804Z,8.63
2018-07-28T03:31:43.985Z,9.13
2018-07-28T03:32:17.080Z,9.65
2018-07-28T03:32:50.154Z,9.60
2018-07-28T03:33:23.609Z,8.53
2018-07-28T03:33:56.690Z,9.10
2018-07-28T03:34:29.847Z,9.25
2018-07-28T03:35:03.053Z,10.43
2018-07-28T03:35:36.144Z,9.23
2018-07-28T03:36:09.216Z,9.20
2018-07-28T03:36:42.299Z,10.50
2018-07-28T03:37:15.408Z,10.58
2018-07-28T03:37:48.580Z,9.33
2018-07-28T03:38:21.647Z,9.53
2018-07-28T03:38:54.705Z,8.80
2018-07-28T03:39:27.862Z,9.55
2018-07-28T03:40:00.981Z,10.38
2018-07-28T03:40:34.092Z,10.70
2018-07-28T03:41:07.391Z,9.98
2018-07-28T03:41:40.558Z,9.85
2018-07-28T03:42:13.730Z,9.48
2018-07-28T03:42:46.948Z,10.18
2018-07-28T03:43:20.107Z,10.08
2018-07-28T03:43:53.196Z,10.08
2018-07-28T03:44:26.598Z,9.05
2018-07-28T03:44:59.801Z,10.23
2018-07-28T03:45:32.894Z,10.18
2018-07-28T03:46:06.137Z,9.20
2018-07-28T03:46:39.273Z,9.70
2018-07-28T03:47:12.367Z,9.50
2018-07-28T03:47:45.559Z,9.75
2018-07-28T03:48:18.642Z,10.45
2018-07-28T03:48:51.734Z,9.90
2018-07-28T03:49:24.918Z,9.25
2018-07-28T03:49:58.031Z,10.30
2018-07-28T03:50:31.126Z,10.95
2018-07-28T03:51:04.236Z,10.10
2018-07-28T03:51:37.609Z,9.38
2018-07-28T03:52:10.786Z,9.95
2018-07-28T03:52:43.903Z,9.50
2018-07-28T03:53:17.004Z,9.80
2018-07-28T03:53:50.211Z,9.25
2018-07-28T03:54:23.392Z,10.68
2018-07-28T03:54:56.878Z,10.15
2018-07-28T03:55:30.066Z,9.50
2018-07-28T03:56:03.195Z,10.78
2018-07-28T03:56:36.481Z,10.30
2018-07-28T03:57:09.574Z,9.30
2018-07-28T03:57:42.677Z,10.30
2018-07-28T03:58:15.816Z,9.80
2018-07-28T03:58:49.098Z,9.73
2018-07-28T03:59:22.174Z,9.90
2018-07-28T03:59:55.272Z,11.20
2018-07-28T04:00:28.360Z,10.60
2018-07-28T04:01:01.430Z,10.80
2018-07-28T04:01:34.529Z,10.03
2018-07-28T04:02:07.620Z,9.60
2018-07-28T04:02:40.713Z,10.50
2018-07-28T04:03:13.784Z,9.88
2018-07-28T04:03:46.886Z,11.40
2018-07-28T04:04:20.061Z,10.00
2018-07-28T04:04:53.132Z,9.90
2018-07-28T04:05:26.232Z,10.10
2018-07-28T04:05:59.336Z,10.28
2018-07-28T04:06:32.607Z,10.63
2018-07-28T04:07:05.723Z,9.43
2018-07-28T04:07:39.337Z,10.05
2018-07-28T04:08:12.443Z,10.13
2018-07-28T04:08:45.564Z,10.08
2018-07-28T04:09:18.668Z,10.45
2018-07-28T04:09:51.740Z,9.65
2018-07-28T04:10:24.857Z,10.25
2018-07-28T04:10:57.934Z,10.40
2018-07-28T04:11:31.095Z,10.82
2018-07-28T04:12:04.179Z,10.45
2018-07-28T04:12:37.324Z,9.23
2018-07-28T04:13:10.421Z,9.38
2018-07-28T04:13:43.503Z,9.45
2018-07-28T04:14:16.609Z,9.78
2018-07-28T04:14:49.737Z,10.38
2018-07-28T04:15:22.818Z,10.30
2018-07-28T04:15:56.209Z,10.80
2018-07-28T04:16:29.295Z,9.70
2018-07-28T04:17:02.400Z,10.15
2018-07-28T04:17:40.060Z,11.12
2018-07-28T04:18:13.171Z,10.30
2018-07-28T04:18:46.366Z,10.30
2018-07-28T04:19:19.592Z,10.00
2018-07-28T04:19:52.688Z,10.25
2018-07-28T04:20:26.784Z,10.88
2018-07-28T04:20:59.880Z,10.35
2018-07-28T04:21:33.102Z,11.00
2018-07-28T04:22:06.289Z,9.98
2018-07-28T04:22:39.464Z,10.65
2018-07-28T04:23:12.529Z,10.20
2018-07-28T04:23:45.834Z,9.98
2018-07-28T04:24:18.949Z,10.28
2018-07-28T04:24:52.046Z,10.65
2018-07-28T04:25:25.144Z,10.72
2018-07-28T04:25:58.227Z,11.03
2018-07-28T04:26:31.348Z,9.63
2018-07-28T04:27:04.729Z,10.60
2018-07-28T04:27:37.959Z,9.60
2018-07-28T04:28:11.041Z,10.85
2018-07-28T04:28:44.184Z,9.63
2018-07-28T04:29:17.295Z,10.10
2018-07-28T04:29:50.379Z,11.78
2018-07-28T04:30:23.572Z,10.98
2018-07-28T04:30:56.716Z,9.60
2018-07-28T04:31:29.828Z,11.35
2018-07-28T04:32:03.386Z,10.43
2018-07-28T04:32:36.779Z,10.20
2018-07-28T04:33:09.896Z,10.35
2018-07-28T04:33:43.005Z,9.80
2018-07-28T04:34:16.143Z,10.82
2018-07-28T04:34:49.243Z,10.30
2018-07-28T04:35:22.343Z,10.50
2018-07-28T04:35:55.440Z,11.35
2018-07-28T04:36:28.548Z,10.60
2018-07-28T04:37:01.698Z,11.10
2018-07-28T04:37:35.188Z,10.38
2018-07-28T04:38:08.410Z,10.23
2018-07-28T04:38:41.661Z,11.03
2018-07-28T04:39:14.751Z,11.45
2018-07-28T04:39:47.839Z,10.88
2018-07-28T04:40:21.106Z,10.90
2018-07-28T04:40:54.244Z,10.70
2018-07-28T04:41:27.427Z,11.10
2018-07-28T04:42:00.732Z,11.08
2018-07-28T04:42:33.819Z,10.53
2018-07-28T04:43:06.891Z,10.70
2018-07-28T04:43:39.990Z,11.10
2018-07-28T04:44:13.135Z,10.68
2018-07-28T04:44:46.525Z,11.20
2018-07-28T04:45:19.688Z,11.28
2018-07-28T04:45:52.880Z,11.20
2018-07-28T04:46:25.995Z,11.10
2018-07-28T04:46:59.134Z,11.83
2018-07-28T04:47:32.307Z,11.60
2018-07-28T04:48:05.376Z,10.25
2018-07-28T04:48:38.461Z,11.20
2018-07-28T04:49:11.627Z,10.85
2018-07-28T04:49:44.836Z,10.60
2018-07-28T04:50:18.172Z,11.25
2018-07-28T04:50:51.279Z,11.48
2018-07-28T04:51:24.395Z,11.30
2018-07-28T04:51:57.468Z,11.25
2018-07-28T04:52:30.705Z,10.80
2018-07-28T04:53:03.812Z,11.97
2018-07-28T04:53:37.177Z,11.00
2018-07-28T04:54:10.299Z,11.68
2018-07-28T04:54:43.783Z,11.10
2018-07-28T04:55:16.922Z,11.03
2018-07-28T04:55:50.183Z,10.30
2018-07-28T04:56:23.324Z,10.58
2018-07-28T04:56:56.439Z,11.00
2018-07-28T04:57:29.603Z,10.43
2018-07-28T04:58:02.796Z,11.45
2018-07-28T04:58:35.915Z,11.30
2018-07-28T04:59:09.020Z,13.05
2018-07-28T04:59:42.636Z,11.33
2018-07-28T05:00:15.931Z,11.83
2018-07-28T05:00:49.040Z,11.43
2018-07-28T05:01:22.112Z,11.80
2018-07-28T05:01:55.211Z,12.03
2018-07-28T05:02:28.847Z,11.70
2018-07-28T05:03:02.018Z,10.78
2018-07-28T05:03:35.312Z,12.35
2018-07-28T05:04:08.408Z,11.50
2018-07-28T05:04:41.587Z,10.13
2018-07-28T05:05:14.667Z,13.53
2018-07-28T05:05:47.931Z,12.03
2018-07-28T05:06:21.083Z,11.70
2018-07-28T05:06:54.187Z,12.05
2018-07-28T05:07:27.337Z,12.13
2018-07-28T05:08:00.453Z,12.15
2018-07-28T05:08:33.530Z,13.13
2018-07-28T05:09:07.663Z,13.13
2018-07-28T05:09:40.739Z,11.12
2018-07-28T05:10:13.816Z,12.50
2018-07-28T05:10:46.943Z,11.88
2018-07-28T05:11:20.120Z,12.25
2018-07-28T05:11:53.475Z,11.80
2018-07-28T05:12:26.581Z,11.35
2018-07-28T05:12:59.846Z,11.53
2018-07-28T05:13:32.986Z,11.28
2018-07-28T05:14:06.096Z,13.03
2018-07-28T05:14:39.186Z,12.33
2018-07-28T05:15:12.273Z,12.45
2018-07-28T05:15:45.445Z,11.78
2018-07-28T05:16:18.528Z,11.40
2018-07-28T05:16:51.623Z,12.60
2018-07-28T05:17:24.755Z,12.53
2018-07-28T05:17:57.859Z,12.07
2018-07-28T05:18:31.022Z,11.75
2018-07-28T05:19:04.206Z,12.33
2018-07-28T05:19:37.278Z,12.90
2018-07-28T05:20:10.360Z,12.58
2018-07-28T05:20:43.438Z,12.50
2018-07-28T05:21:16.594Z,11.75
2018-07-28T05:21:49.762Z,12.33
2018-07-28T05:22:22.947Z,12.10
2018-07-28T05:22:56.062Z,12.95
2018-07-28T05:23:29.178Z,12.47
2018-07-28T05:24:02.505Z,12.60
2018-07-28T05:24:35.862Z,13.22
2018-07-28T05:25:09.144Z,11.90
2018-07-28T05:25:42.256Z,12.05
2018-07-28T05:26:15.354Z,13.10
2018-07-28T05:26:48.450Z,11.80
2018-07-28T05:27:21.744Z,13.18
2018-07-28T05:27:54.827Z,12.45
2018-07-28T05:28:27.942Z,13.25
2018-07-28T05:29:01.024Z,12.63
2018-07-28T05:29:34.350Z,13.53
2018-07-28T05:30:08.395Z,12.90
2018-07-28T05:30:41.535Z,12.80
2018-07-28T05:31:14.709Z,12.73
2018-07-28T05:31:47.792Z,12.30
2018-07-28T05:32:20.881Z,12.75
2018-07-28T05:32:53.972Z,12.75
2018-07-28T05:33:27.102Z,12.80
2018-07-28T05:34:00.309Z,12.60
2018-07-28T05:34:33.414Z,11.88
2018-07-28T05:35:07.097Z,12.78
2018-07-28T05:35:40.256Z,12.85
2018-07-28T05:36:13.343Z,13.00
2018-07-28T05:36:46.415Z,12.93
2018-07-28T05:37:19.786Z,11.85
2018-07-28T05:37:52.907Z,12.82
2018-07-28T05:38:26.056Z,11.75
2018-07-28T05:38:59.165Z,12.55
2018-07-28T05:39:32.226Z,11.90
2018-07-28T05:40:05.318Z,13.53
2018-07-28T05:40:38.375Z,11.95
2018-07-28T05:41:11.604Z,11.83
2018-07-28T05:41:44.714Z,13.45
2018-07-28T05:42:18.112Z,13.03
2018-07-28T05:42:51.193Z,13.30
2018-07-28T05:43:24.282Z,13.10
2018-07-28T05:43:57.392Z,13.15
2018-07-28T05:44:30.503Z,11.97
2018-07-28T05:45:03.623Z,11.90
2018-07-28T05:45:36.739Z,11.80
2018-07-28T05:46:09.874Z,11.83
2018-07-28T05:46:43.007Z,12.43
2018-07-28T05:47:16.131Z,12.82
2018-07-28T05:47:49.254Z,12.43
2018-07-28T05:48:22.348Z,12.63
2018-07-28T05:48:55.438Z,13.25
2018-07-28T05:49:28.609Z,13.30
2018-07-28T05:50:01.709Z,13.60
2018-07-28T05:50:34.812Z,14.05
2018-07-28T05:51:07.914Z,12.65
2018-07-28T05:51:41.068Z,11.73
2018-07-28T05:52:14.219Z,14.18
2018-07-28T05:52:47.320Z,12.80
2018-07-28T05:53:20.431Z,13.45
2018-07-28T05:53:53.544Z,12.82
2018-07-28T05:54:26.676Z,14.07
2018-07-28T05:54:59.845Z,13.75
2018-07-28T05:55:32.951Z,14.10
2018-07-28T05:56:06.507Z,13.20
2018-07-28T05:56:39.584Z,12.37
2018-07-28T05:57:12.679Z,12.88
2018-07-28T05:57:45.792Z,13.70
2018-07-28T05:58:18.891Z,13.85
2018-07-28T05:58:52.007Z,12.90
2018-07-28T05:59:25.171Z,12.35
2018-07-28T05:59:58.470Z,12.90
2018-07-28T06:00:31.996Z,13.08
2018-07-28T06:01:05.535Z,13.80
2018-07-28T06:01:38.651Z,14.23
2018-07-28T06:02:11.788Z,13.68
2018-07-28T06:02:44.855Z,13.78
2018-07-28T06:03:17.969Z,12.78
2018-07-28T06:03:51.464Z,13.00
2018-07-28T06:04:24.643Z,12.95
2018-07-28T06:04:58.097Z,13.10
2018-07-28T06:05:31.206Z,12.93
2018-07-28T06:06:04.319Z,11.93
2018-07-28T06:06:37.522Z,12.98
2018-07-28T06:07:10.736Z,13.35
2018-07-28T06:07:43.950Z,12.15
2018-07-28T06:08:17.050Z,13.50
2018-07-28T06:08:50.207Z,12.47
2018-07-28T06:09:23.289Z,13.18
2018-07-28T06:09:56.397Z,13.00
2018-07-28T06:10:29.696Z,12.03
2018-07-28T06:11:02.819Z,12.65
2018-07-28T06:11:35.988Z,13.18
2018-07-28T06:12:09.423Z,13.10
2018-07-28T06:12:42.511Z,14.18
2018-07-28T06:13:15.797Z,13.25
2018-07-28T06:13:48.890Z,13.22
2018-07-28T06:14:22.032Z,12.65
2018-07-28T06:14:55.214Z,12.82
2018-07-28T06:15:28.302Z,11.90
2018-07-28T06:16:01.400Z,12.50
2018-07-28T06:16:34.566Z,11.22
2018-07-28T06:17:07.668Z,11.90
2018-07-28T06:17:40.747Z,11.78
2018-07-28T06:18:13.928Z,12.90
2018-07-28T06:18:47.131Z,13.20
2018-07-28T06:19:20.235Z,11.97
2018-07-28T06:19:53.832Z,12.33
2018-07-28T06:20:27.003Z,13.08
2018-07-28T06:21:00.234Z,13.15
2018-07-28T06:21:33.443Z,13.72
2018-07-28T06:22:06.632Z,13.50
2018-07-28T06:22:39.679Z,14.10
2018-07-28T06:23:12.865Z,13.80
2018-07-28T06:23:46.068Z,14.80
2018-07-28T06:24:19.251Z,14.03
2018-07-28T06:24:52.358Z,11.90
2018-07-28T06:25:25.499Z,12.80
2018-07-28T06:25:58.667Z,14.78
2018-07-28T06:26:31.759Z,15.20
2018-07-28T06:27:04.872Z,14.80
2018-07-28T06:27:38.219Z,14.10
2018-07-28T06:28:11.332Z,13.45
2018-07-28T06:28:44.425Z,14.07
2018-07-28T06:29:17.561Z,13.35
2018-07-28T06:29:50.725Z,13.98
2018-07-28T06:30:24.352Z,14.93
2018-07-28T06:30:57.691Z,14.70
2018-07-28T06:31:31.755Z,15.28
2018-07-28T06:32:04.863Z,12.78
2018-07-28T06:32:38.397Z,12.53
2018-07-28T06:33:11.627Z,13.08
2018-07-28T06:33:44.850Z,13.15
2018-07-28T06:34:17.923Z,12.60
2018-07-28T06:34:51.493Z,13.08
2018-07-28T06:35:24.901Z,12.85
2018-07-28T06:35:57.991Z,13.93
2018-07-28T06:36:31.515Z,12.85
2018-07-28T06:37:04.803Z,12.37
2018-07-28T06:37:38.287Z,12.25
2018-07-28T06:38:11.405Z,13.18
2018-07-28T06:38:44.967Z,11.68
2018-07-28T06:39:18.087Z,12.78
2018-07-28T06:39:51.249Z,11.93
2018-07-28T06:40:24.390Z,13.55
2018-07-28T06:40:57.471Z,11.70
2018-07-28T06:41:30.569Z,13.55
2018-07-28T06:42:03.848Z,12.28
2018-07-28T06:42:37.010Z,11.65
2018-07-28T06:43:10.131Z,11.15
2018-07-28T06:43:43.322Z,12.78
2018-07-28T06:44:16.415Z,11.83
2018-07-28T06:44:49.635Z,11.50
2018-07-28T06:45:23.174Z,12.20
2018-07-28T06:45:56.303Z,11.28
2018-07-28T06:46:29.448Z,10.93
2018-07-28T06:47:02.759Z,11.83
2018-07-28T06:47:35.887Z,11.40
2018-07-28T06:48:10.133Z,11.12
2018-07-28T06:48:43.253Z,10.80
2018-07-28T06:49:16.566Z,11.12
2018-07-28T06:49:49.664Z,10.98
2018-07-28T06:50:22.740Z,10.93
2018-07-28T06:50:55.847Z,9.65
2018-07-28T06:51:28.938Z,10.60
2018-07-28T06:52:02.205Z,8.95
2018-07-28T06:52:35.355Z,9.35
2018-07-28T06:53:08.434Z,9.75
2018-07-28T06:53:41.535Z,10.95
2018-07-28T06:54:14.740Z,10.48
2018-07-28T06:54:48.175Z,9.30
2018-07-28T06:55:21.566Z,10.98
2018-07-28T06:55:54.752Z,9.60
2018-07-28T06:56:28.233Z,9.85
2018-07-28T06:57:01.367Z,10.60
2018-07-28T06:57:34.461Z,10.88
2018-07-28T06:58:07.638Z,9.58
2018-07-28T06:58:40.840Z,9.55
2018-07-28T06:59:13.908Z,9.78
2018-07-28T06:59:46.977Z,9.73
2018-07-28T07:00:20.117Z,10.23
2018-07-28T07:00:53.324Z,9.00
2018-07-28T07:01:26.484Z,9.45
2018-07-28T07:01:59.584Z,10.08
2018-07-28T07:02:32.863Z,9.60
2018-07-28T07:03:05.984Z,9.60
2018-07-28T07:03:39.117Z,9.00
2018-07-28T07:04:12.209Z,9.38
2018-07-28T07:04:45.325Z,9.25
2018-07-28T07:05:18.563Z,9.55
2018-07-28T07:05:51.927Z,9.45
2018-07-28T07:06:25.231Z,9.40
2018-07-28T07:06:58.340Z,8.70
2018-07-28T07:07:31.467Z,8.60
2018-07-28T07:08:04.636Z,8.68
2018-07-28T07:08:37.943Z,9.28
2018-07-28T07:09:12.185Z,8.85
2018-07-28T07:09:45.430Z,9.35
2018-07-28T07:10:18.527Z,8.75
2018-07-28T07:11:39.318Z,9.18
2018-07-28T07:12:12.404Z,9.10
2018-07-28T07:12:45.550Z,9.20
2018-07-28T07:13:18.622Z,8.73
2018-07-28T07:13:51.812Z,8.25
2018-07-28T07:14:24.913Z,8.65
2018-07-28T07:14:58.131Z,9.40
2018-07-28T07:15:31.211Z,8.23
2018-07-28T07:16:04.515Z,8.55
2018-07-28T07:16:37.667Z,7.80